createdAt,value
2023-05-10T00:01:44.223Z,98875.56
2023-05-10T00:04:12.894Z,98879.16
2023-05-10T00:06:40.157Z,98874.97
2023-05-10T00:09:07.341Z,98880.06
2023-05-10T00:11:34.488Z,98871.59
2023-05-10T00:14:01.688Z,98876.25
2023-05-10T00:16:28.973Z,98871.69
2023-05-10T00:18:56.295Z,98875.50
2023-05-10T00:21:24.798Z,98871.31
2023-05-10T00:23:51.973Z,98873.22
2023-05-10T00:26:19.147Z,98869.41
2023-05-10T00:28:52.460Z,98859.72
2023-05-10T00:31:19.814Z,98865.13
2023-05-10T00:33:47.021Z,98858.72
2023-05-10T00:36:14.177Z,98860.16
2023-05-10T00:38:43.488Z,98856.66
2023-05-10T00:41:10.717Z,98854.28
2023-05-10T00:43:40.082Z,98854.03
2023-05-10T00:46:07.406Z,98861.47
2023-05-10T00:48:35.333Z,98860.03
2023-05-10T00:51:02.746Z,98859.19
2023-05-10T00:53:32.099Z,98874.81
2023-05-10T00:56:00.785Z,98867.59
2023-05-10T00:58:29.289Z,98861.09
2023-05-10T01:00:56.638Z,98857.31
2023-05-10T01:03:23.930Z,98858.97
2023-05-10T01:05:51.181Z,98861.44
2023-05-10T01:08:19.247Z,98853.66
2023-05-10T01:10:46.511Z,98855.69
2023-05-10T01:13:24.627Z,98857.34
2023-05-10T01:15:51.966Z,98856.28
2023-05-10T01:18:21.613Z,98860.31
2023-05-10T01:20:59.346Z,98874.38
2023-05-10T01:23:42.644Z,98885.75
2023-05-10T01:26:32.576Z,98893.06
2023-05-10T01:29:25.029Z,98884.69
2023-05-10T01:32:21.864Z,98888.72
2023-05-10T01:35:00.585Z,98889.72
2023-05-10T01:37:46.396Z,98884.63
2023-05-10T01:40:20.751Z,98896.66
2023-05-10T01:42:52.245Z,98893.69
2023-05-10T01:45:27.905Z,98905.94
2023-05-10T01:48:06.171Z,98892.63
2023-05-10T01:50:36.400Z,98894.91
2023-05-10T01:53:07.453Z,98898.72
2023-05-10T01:55:40.466Z,98905.66
2023-05-10T01:58:13.885Z,98905.59
2023-05-10T02:00:44.040Z,98906.22
2023-05-10T02:03:14.561Z,98908.97
2023-05-10T02:05:44.102Z,98913.59
2023-05-10T02:08:12.958Z,98918.88
2023-05-10T02:10:40.912Z,98926.72
2023-05-10T02:13:09.172Z,98919.09
2023-05-10T02:15:37.932Z,98918.03
2023-05-10T02:18:07.026Z,98931.97
2023-05-10T02:20:37.808Z,98938.50
2023-05-10T02:23:06.007Z,98934.31
2023-05-10T02:25:34.111Z,98942.94
2023-05-10T02:28:04.055Z,98941.72
2023-05-10T02:30:33.225Z,98943.63
2023-05-10T02:33:01.057Z,98943.19
2023-05-10T02:35:28.988Z,98950.19
2023-05-10T02:37:59.399Z,98948.03
2023-05-10T02:40:28.945Z,98954.22
2023-05-10T02:42:58.600Z,98951.91
2023-05-10T02:45:30.972Z,98952.81
2023-05-10T02:47:59.472Z,98956.53
2023-05-10T02:50:29.207Z,98952.97
2023-05-10T02:53:02.078Z,98952.44
2023-05-10T02:55:36.055Z,98946.53
2023-05-10T02:58:03.973Z,98952.06
2023-05-10T03:00:31.675Z,98961.53
2023-05-10T03:02:59.014Z,98964.94
2023-05-10T03:05:27.216Z,98956.53
2023-05-10T03:07:55.524Z,98954.91
2023-05-10T03:10:28.005Z,98954.25
2023-05-10T03:13:06.724Z,98961.44
2023-05-10T03:15:43.309Z,98964.59
2023-05-10T03:18:16.201Z,98978.09
2023-05-10T03:20:47.883Z,98972.19
2023-05-10T03:23:23.448Z,98974.97
2023-05-10T03:25:53.029Z,98980.63
2023-05-10T03:28:21.789Z,98981.25
2023-05-10T03:30:50.363Z,98984.41
2023-05-10T03:33:17.585Z,98994.31
2023-05-10T03:35:46.902Z,98991.22
2023-05-10T03:38:15.096Z,98987.19
2023-05-10T03:40:42.391Z,98988.47
2023-05-10T03:43:11.049Z,98989.13
2023-05-10T03:45:38.216Z,98997.78
2023-05-10T03:48:06.474Z,98994.63
2023-05-10T03:50:33.715Z,98993.34
2023-05-10T03:53:01.297Z,98991.88
2023-05-10T03:55:29.306Z,98997.78
2023-05-10T03:57:56.946Z,99000.97
2023-05-10T04:00:26.117Z,99004.41
2023-05-10T04:02:56.010Z,99003.31
2023-05-10T04:05:24.132Z,99015.53
2023-05-10T04:07:53.760Z,99011.09
2023-05-10T04:10:20.956Z,99017.91
2023-05-10T04:12:48.197Z,99015.13
2023-05-10T04:15:15.492Z,99025.25
2023-05-10T04:17:44.080Z,99017.66
2023-05-10T04:20:12.325Z,99029.22
2023-05-10T04:22:39.822Z,99029.41
2023-05-10T04:25:07.959Z,99030.88
2023-05-10T04:27:35.270Z,99025.59
2023-05-10T04:30:02.616Z,99026.44
2023-05-10T04:32:29.872Z,99020.53
2023-05-10T04:34:58.454Z,99024.09
2023-05-10T04:37:25.626Z,99022.38
2023-05-10T04:39:52.785Z,99024.72
2023-05-10T04:42:19.922Z,99028.09
2023-05-10T04:44:47.081Z,99036.31
2023-05-10T04:47:14.284Z,99036.69
2023-05-10T04:49:41.477Z,99040.13
2023-05-10T04:52:10.028Z,99041.34
2023-05-10T04:54:37.189Z,99038.81
2023-05-10T04:57:04.493Z,99045.78
2023-05-10T04:59:31.643Z,99051.84
2023-05-10T05:01:58.872Z,99061.50
2023-05-10T05:04:26.057Z,99058.91
2023-05-10T05:06:54.032Z,99062.75
2023-05-10T05:09:22.725Z,99057.81
2023-05-10T05:11:49.869Z,99068.72
2023-05-10T05:14:17.057Z,99065.94
2023-05-10T05:16:44.337Z,99074.81
2023-05-10T05:19:11.470Z,99079.50
2023-05-10T05:21:38.675Z,99079.22
2023-05-10T05:24:06.862Z,99076.44
2023-05-10T05:26:35.384Z,99082.94
2023-05-10T05:29:02.549Z,99081.28
2023-05-10T05:31:30.033Z,99085.31
2023-05-10T05:33:57.252Z,99090.91
2023-05-10T05:36:24.421Z,99094.44
2023-05-10T05:38:51.607Z,99090.47
2023-05-10T05:41:18.745Z,99098.44
2023-05-10T05:43:47.230Z,99091.22
2023-05-10T05:46:14.483Z,99095.22
2023-05-10T05:48:41.707Z,99093.69
2023-05-10T05:51:08.846Z,99091.00
2023-05-10T05:53:36.054Z,99093.47
2023-05-10T05:56:03.465Z,99093.44
2023-05-10T05:58:30.641Z,99095.28
2023-05-10T06:00:59.136Z,99100.38
2023-05-10T06:03:26.602Z,99095.50
2023-05-10T06:05:53.926Z,99106.06
2023-05-10T06:08:21.092Z,99103.16
2023-05-10T06:10:48.236Z,99108.00
2023-05-10T06:13:15.552Z,99109.84
2023-05-10T06:15:42.755Z,99110.75
2023-05-10T06:18:11.335Z,99116.69
2023-05-10T06:20:38.550Z,99116.34
2023-05-10T06:23:05.713Z,99115.13
2023-05-10T06:25:32.896Z,99122.56
2023-05-10T06:28:00.112Z,99120.25
2023-05-10T06:30:27.443Z,99124.06
2023-05-10T06:32:55.535Z,99122.88
2023-05-10T06:35:24.298Z,99130.66
2023-05-10T06:37:51.671Z,99122.88
2023-05-10T06:40:19.104Z,99127.75
2023-05-10T06:42:46.404Z,99130.25
2023-05-10T06:45:13.956Z,99125.00
2023-05-10T06:47:41.422Z,99137.22
2023-05-10T06:50:09.387Z,99133.44
2023-05-10T06:52:38.180Z,99132.72
2023-05-10T06:55:06.238Z,99137.22
2023-05-10T06:57:33.405Z,99137.22
2023-05-10T07:00:00.802Z,99133.41
2023-05-10T07:02:28.652Z,99130.19
2023-05-10T07:04:55.948Z,99132.94
2023-05-10T07:07:23.167Z,99131.22
2023-05-10T07:09:51.704Z,99134.34
2023-05-10T07:12:18.985Z,99133.16
2023-05-10T07:14:46.264Z,99136.13
2023-05-10T07:17:13.465Z,99141.84
2023-05-10T07:19:41.896Z,99149.09
2023-05-10T07:22:09.090Z,99141.41
2023-05-10T07:24:36.393Z,99145.94
2023-05-10T07:27:05.541Z,99142.00
2023-05-10T07:29:32.722Z,99144.75
2023-05-10T07:31:59.976Z,99137.59
2023-05-10T07:34:27.150Z,99137.94
2023-05-10T07:36:54.428Z,99133.91
2023-05-10T07:39:27.459Z,99135.84
2023-05-10T07:41:55.509Z,99150.66
2023-05-10T07:44:24.169Z,99151.78
2023-05-10T07:46:51.463Z,99153.13
2023-05-10T07:49:18.815Z,99154.69
2023-05-10T07:51:46.030Z,99159.41
2023-05-10T07:54:13.647Z,99157.19
2023-05-10T07:56:41.153Z,99161.38
2023-05-10T07:59:09.750Z,99162.53
2023-05-10T08:01:39.249Z,99168.88
2023-05-10T08:04:06.536Z,99169.34
2023-05-10T08:06:33.883Z,99168.59
2023-05-10T08:09:01.125Z,99175.63
2023-05-10T08:11:28.370Z,99176.19
2023-05-10T08:13:55.520Z,99177.13
2023-05-10T08:16:23.057Z,99175.81
2023-05-10T08:18:51.882Z,99184.91
2023-05-10T08:21:19.123Z,99182.13
2023-05-10T08:23:46.288Z,99185.94
2023-05-10T08:26:13.501Z,99190.00
2023-05-10T08:28:40.707Z,99181.16
2023-05-10T08:31:07.902Z,99186.66
2023-05-10T08:33:35.052Z,99194.81
2023-05-10T08:36:03.867Z,99186.44
2023-05-10T08:38:31.056Z,99192.22
2023-05-10T08:40:59.350Z,99190.47
2023-05-10T08:43:28.451Z,99197.03
2023-05-10T08:45:56.563Z,99207.97
2023-05-10T08:48:24.692Z,99196.50
2023-05-10T08:50:54.774Z,99205.44
2023-05-10T08:53:25.639Z,99207.88
2023-05-10T08:55:53.799Z,99206.66
2023-05-10T08:58:21.185Z,99211.84
2023-05-10T09:00:50.414Z,99213.13
2023-05-10T09:03:17.686Z,99221.53
2023-05-10T09:05:45.105Z,99221.63
2023-05-10T09:08:13.202Z,99217.91
2023-05-10T09:10:43.358Z,99228.84
2023-05-10T09:13:11.527Z,99224.94
2023-05-10T09:15:39.173Z,99222.22
2023-05-10T09:18:06.484Z,99229.03
2023-05-10T09:20:33.816Z,99226.19
2023-05-10T09:23:01.010Z,99228.56
2023-05-10T09:25:28.362Z,99237.09
2023-05-10T09:27:56.876Z,99238.13
2023-05-10T09:30:28.197Z,99233.69
2023-05-10T09:32:56.571Z,99231.25
2023-05-10T09:35:29.334Z,99234.84
2023-05-10T09:38:00.204Z,99236.56
2023-05-10T09:40:28.891Z,99245.22
2023-05-10T09:42:58.853Z,99240.44
2023-05-10T09:45:27.532Z,99244.69
2023-05-10T09:47:54.941Z,99241.47
2023-05-10T09:50:23.166Z,99241.53
2023-05-10T09:52:51.791Z,99238.78
2023-05-10T09:55:20.426Z,99240.78
2023-05-10T09:57:48.534Z,99239.25
2023-05-10T10:00:20.926Z,99228.56
2023-05-10T10:02:54.699Z,99246.34
2023-05-10T10:05:22.036Z,99236.28
2023-05-10T10:07:49.329Z,99237.28
2023-05-10T10:10:16.760Z,99234.16
2023-05-10T10:12:44.050Z,99239.19
2023-05-10T10:15:12.146Z,99237.16
2023-05-10T10:17:42.098Z,99237.22
2023-05-10T10:20:12.128Z,99237.09
2023-05-10T10:22:39.492Z,99232.81
2023-05-10T10:25:07.688Z,99231.94
2023-05-10T10:27:44.999Z,99234.03
2023-05-10T10:30:22.583Z,99230.44
2023-05-10T10:33:13.592Z,99236.06
2023-05-10T10:35:47.747Z,99237.34
2023-05-10T10:38:14.923Z,99235.06
2023-05-10T10:40:42.114Z,99241.41
2023-05-10T10:43:26.127Z,99238.09
2023-05-10T10:46:13.588Z,99235.28
2023-05-10T10:48:42.889Z,99242.09
2023-05-10T10:51:11.565Z,99240.31
2023-05-10T10:53:41.698Z,99246.69
2023-05-10T10:56:10.180Z,99251.59
2023-05-10T10:58:39.040Z,99250.66
2023-05-10T11:01:15.811Z,99245.84
2023-05-10T11:04:20.102Z,99252.97
2023-05-10T11:06:47.341Z,99248.22
2023-05-10T11:09:14.473Z,99257.69
2023-05-10T11:11:53.140Z,99266.63
2023-05-10T11:14:21.570Z,99265.88
2023-05-10T11:16:48.800Z,99252.72
2023-05-10T11:19:18.689Z,99251.66
2023-05-10T11:21:47.127Z,99258.44
2023-05-10T11:24:15.500Z,99254.94
2023-05-10T11:26:43.246Z,99252.91
2023-05-10T11:29:10.509Z,99260.41
2023-05-10T11:31:43.625Z,99263.97
2023-05-10T11:34:10.784Z,99265.25
2023-05-10T11:36:39.299Z,99260.47
2023-05-10T11:39:06.688Z,99270.69
2023-05-10T11:41:33.880Z,99277.91
2023-05-10T11:44:01.196Z,99276.63
2023-05-10T11:46:28.968Z,99291.16
2023-05-10T11:48:59.845Z,99284.94
2023-05-10T11:51:27.071Z,99291.13
2023-05-10T11:53:57.143Z,99293.56
2023-05-10T11:56:24.355Z,99299.84
2023-05-10T11:58:54.596Z,99282.94
2023-05-10T12:01:22.484Z,99289.00
2023-05-10T12:03:50.797Z,99288.63
2023-05-10T12:06:19.662Z,99292.38
2023-05-10T12:08:48.381Z,99302.03
2023-05-10T12:11:16.907Z,99303.09
2023-05-10T12:13:45.238Z,99308.06
2023-05-10T12:16:16.746Z,99318.16
2023-05-10T12:18:44.234Z,99315.94
2023-05-10T12:21:11.920Z,99310.97
2023-05-10T12:23:39.514Z,99319.59
2023-05-10T12:26:07.301Z,99321.13
2023-05-10T12:28:35.895Z,99322.00
2023-05-10T12:31:03.926Z,99317.28
2023-05-10T12:33:37.308Z,99324.75
2023-05-10T12:36:04.823Z,99323.22
2023-05-10T12:38:34.436Z,99318.00
2023-05-10T12:41:03.110Z,99316.91
2023-05-10T12:43:31.019Z,99321.34
2023-05-10T12:45:59.938Z,99319.94
2023-05-10T12:48:27.148Z,99322.53
2023-05-10T12:50:54.348Z,99322.97
2023-05-10T12:53:21.492Z,99328.69
2023-05-10T12:55:48.644Z,99341.25
2023-05-10T12:58:31.515Z,99341.50
2023-05-10T13:01:04.240Z,99344.13
2023-05-10T13:03:31.554Z,99334.25
2023-05-10T13:05:58.943Z,99332.66
2023-05-10T13:08:26.107Z,99344.63
2023-05-10T13:10:53.383Z,99337.66
2023-05-10T13:13:20.585Z,99338.84
2023-05-10T13:15:47.780Z,99344.41
2023-05-10T13:18:16.395Z,99332.91
2023-05-10T13:20:43.626Z,99341.41
2023-05-10T13:23:11.007Z,99348.06
2023-05-10T13:25:38.445Z,99344.88
2023-05-10T13:28:05.688Z,99344.19
2023-05-10T13:30:32.905Z,99356.41
2023-05-10T13:33:00.097Z,99358.56
2023-05-10T13:35:28.673Z,99350.56
2023-05-10T13:37:55.877Z,99352.69
2023-05-10T13:40:23.048Z,99348.94
2023-05-10T13:42:50.253Z,99355.34
2023-05-10T13:45:17.730Z,99355.31
2023-05-10T13:47:45.037Z,99341.53
2023-05-10T13:50:12.277Z,99353.25
2023-05-10T13:52:40.918Z,99348.75
2023-05-10T13:55:08.934Z,99349.88
2023-05-10T13:57:36.148Z,99341.34
2023-05-10T14:00:03.968Z,99345.66
2023-05-10T14:02:35.193Z,99340.47
2023-05-10T14:05:02.423Z,99344.44
2023-05-10T14:07:29.570Z,99336.00
2023-05-10T14:09:58.083Z,99339.22
2023-05-10T14:12:25.276Z,99331.28
2023-05-10T14:14:52.470Z,99332.81
2023-05-10T14:17:19.602Z,99338.00
2023-05-10T14:19:46.753Z,99332.72
2023-05-10T14:22:13.910Z,99329.66
2023-05-10T14:24:41.069Z,99325.66
2023-05-10T14:27:09.560Z,99326.47
2023-05-10T14:29:36.714Z,99329.25
2023-05-10T14:32:04.001Z,99325.41
2023-05-10T14:34:31.228Z,99323.75
2023-05-10T14:36:58.393Z,99312.19
2023-05-10T14:39:25.575Z,99315.63
2023-05-10T14:41:52.742Z,99317.22
2023-05-10T14:44:21.267Z,99307.41
2023-05-10T14:46:48.447Z,99304.94
2023-05-10T14:49:15.589Z,99310.38
2023-05-10T14:51:42.749Z,99304.59
2023-05-10T14:54:09.919Z,99312.78
2023-05-10T14:56:37.112Z,99315.06
2023-05-10T14:59:04.301Z,99309.03
2023-05-10T15:01:33.261Z,99315.38
2023-05-10T15:04:00.518Z,99314.78
2023-05-10T15:06:31.827Z,99312.75
2023-05-10T15:08:59.076Z,99309.66
2023-05-10T15:11:26.252Z,99314.34
2023-05-10T15:13:53.463Z,99317.72
2023-05-10T15:16:20.651Z,99311.72
2023-05-10T15:18:49.447Z,99316.84
2023-05-10T15:21:16.715Z,99309.13
2023-05-10T15:23:43.932Z,99317.19
2023-05-10T15:26:11.118Z,99304.72
2023-05-10T15:28:38.273Z,99311.44
2023-05-10T15:31:05.709Z,99311.56
2023-05-10T15:33:32.896Z,99315.75
2023-05-10T15:36:01.432Z,99317.19
2023-05-10T15:38:28.640Z,99310.84
2023-05-10T15:40:57.564Z,99320.91
2023-05-10T15:43:24.736Z,99317.94
2023-05-10T15:45:51.853Z,99321.31
2023-05-10T15:48:19.057Z,99318.44
2023-05-10T15:50:46.291Z,99321.53
2023-05-10T15:53:14.816Z,99325.84
2023-05-10T15:55:41.968Z,99318.88
2023-05-10T15:58:09.156Z,99321.84
2023-05-10T16:00:36.574Z,99325.69
2023-05-10T16:03:03.968Z,99327.75
2023-05-10T16:05:31.294Z,99338.03
2023-05-10T16:07:58.596Z,99333.25
2023-05-10T16:10:27.401Z,99336.00
2023-05-10T16:12:55.086Z,99338.66
2023-05-10T16:15:22.309Z,99337.28
2023-05-10T16:17:49.823Z,99340.78
2023-05-10T16:20:17.248Z,99346.19
2023-05-10T16:22:44.452Z,99349.94
2023-05-10T16:25:13.503Z,99341.31
2023-05-10T16:27:42.302Z,99342.53
2023-05-10T16:30:09.949Z,99344.81
2023-05-10T16:32:37.166Z,99344.34
2023-05-10T16:35:05.027Z,99349.16
2023-05-10T16:37:32.167Z,99346.88
2023-05-10T16:39:59.294Z,99343.63
2023-05-10T16:42:27.493Z,99343.50
2023-05-10T16:44:56.064Z,99344.34
2023-05-10T16:47:23.316Z,99355.50
2023-05-10T16:49:50.507Z,99353.09
2023-05-10T16:52:17.723Z,99347.22
2023-05-10T16:54:44.849Z,99351.75
2023-05-10T16:57:11.973Z,99354.06
2023-05-10T16:59:39.146Z,99350.13
2023-05-10T17:02:07.745Z,99350.44
2023-05-10T17:04:34.962Z,99350.94
2023-05-10T17:07:02.139Z,99354.78
2023-05-10T17:09:29.294Z,99353.59
2023-05-10T17:11:56.459Z,99351.19
2023-05-10T17:14:24.165Z,99356.72
2023-05-10T17:16:51.367Z,99363.66
2023-05-10T17:19:19.938Z,99362.81
2023-05-10T17:21:47.113Z,99356.22
2023-05-10T17:24:14.408Z,99364.97
2023-05-10T17:26:41.702Z,99366.25
2023-05-10T17:29:08.861Z,99366.13
2023-05-10T17:31:36.125Z,99362.50
2023-05-10T17:34:05.392Z,99366.72
2023-05-10T17:36:34.476Z,99360.91
2023-05-10T17:39:01.622Z,99370.44
2023-05-10T17:41:28.767Z,99367.47
2023-05-10T17:43:55.945Z,99370.16
2023-05-10T17:46:23.163Z,99369.53
2023-05-10T17:48:50.432Z,99368.03
2023-05-10T17:51:18.724Z,99368.34
2023-05-10T17:53:47.320Z,99370.56
2023-05-10T17:56:14.455Z,99377.00
2023-05-10T17:58:41.605Z,99379.75
2023-05-10T18:01:08.841Z,99387.91
2023-05-10T18:03:36.077Z,99378.66
2023-05-10T18:06:03.854Z,99382.97
2023-05-10T18:08:31.228Z,99385.56
2023-05-10T18:10:59.807Z,99386.94
2023-05-10T18:13:26.957Z,99387.41
2023-05-10T18:15:54.156Z,99387.53
2023-05-10T18:18:21.452Z,99396.47
2023-05-10T18:20:48.729Z,99395.25
2023-05-10T18:23:15.906Z,99392.94
2023-05-10T18:25:43.049Z,99390.88
2023-05-10T18:28:11.577Z,99386.47
2023-05-10T18:30:38.778Z,99392.38
2023-05-10T18:33:05.985Z,99390.94
2023-05-10T18:35:33.463Z,99384.88
2023-05-10T18:38:00.904Z,99396.28
2023-05-10T18:40:28.132Z,99391.63
2023-05-10T18:42:55.303Z,99394.66
2023-05-10T18:45:23.828Z,99396.38
2023-05-10T18:47:51.116Z,99400.84
2023-05-10T18:50:18.429Z,99396.00
2023-05-10T18:52:45.934Z,99404.44
2023-05-10T18:55:13.229Z,99404.06
2023-05-10T18:57:40.441Z,99403.00
2023-05-10T19:00:09.114Z,99403.03
2023-05-10T19:02:37.777Z,99407.28
2023-05-10T19:05:05.722Z,99406.16
2023-05-10T19:07:33.443Z,99414.59
2023-05-10T19:10:00.711Z,99419.00
2023-05-10T19:12:27.977Z,99420.88
2023-05-10T19:14:55.177Z,99421.50
2023-05-10T19:17:22.432Z,99427.75
2023-05-10T19:19:50.967Z,99432.38
2023-05-10T19:22:21.417Z,99435.06
2023-05-10T19:24:56.982Z,99436.34
2023-05-10T19:27:24.372Z,99443.31
2023-05-10T19:29:51.889Z,99447.47
2023-05-10T19:32:19.134Z,99449.16
2023-05-10T19:34:46.346Z,99443.66
2023-05-10T19:37:14.902Z,99444.28
2023-05-10T19:39:42.112Z,99443.16
2023-05-10T19:42:09.303Z,99445.03
2023-05-10T19:44:36.446Z,99450.25
2023-05-10T19:47:03.719Z,99448.06
2023-05-10T19:49:31.106Z,99448.34
2023-05-10T19:51:58.333Z,99461.41
2023-05-10T19:54:26.966Z,99457.94
2023-05-10T19:56:54.165Z,99463.84
2023-05-10T19:59:21.341Z,99466.38
2023-05-10T20:01:48.597Z,99473.72
2023-05-10T20:04:15.820Z,99467.41
2023-05-10T20:06:43.010Z,99471.19
2023-05-10T20:09:10.188Z,99474.16
2023-05-10T20:11:38.781Z,99472.91
2023-05-10T20:14:05.947Z,99472.53
2023-05-10T20:16:33.175Z,99471.28
2023-05-10T20:19:00.557Z,99478.44
2023-05-10T20:21:27.760Z,99471.09
2023-05-10T20:23:54.967Z,99474.47
2023-05-10T20:26:22.154Z,99474.47
2023-05-10T20:28:50.665Z,99473.47
2023-05-10T20:31:17.873Z,99479.75
2023-05-10T20:33:45.043Z,99483.56
2023-05-10T20:36:12.254Z,99479.38
2023-05-10T20:38:39.399Z,99483.41
2023-05-10T20:41:06.577Z,99480.28
2023-05-10T20:43:33.744Z,99481.09
2023-05-10T20:46:02.305Z,99480.50
2023-05-10T20:48:29.479Z,99474.66
2023-05-10T20:50:56.950Z,99474.47
2023-05-10T20:53:24.211Z,99476.13
2023-05-10T20:55:51.345Z,99475.50
2023-05-10T20:58:18.554Z,99471.13
2023-05-10T21:00:45.787Z,99472.03
2023-05-10T21:03:15.093Z,99468.91
2023-05-10T21:05:42.287Z,99469.94
2023-05-10T21:08:09.429Z,99471.84
2023-05-10T21:10:36.591Z,99466.78
2023-05-10T21:13:03.752Z,99463.41
2023-05-10T21:15:30.965Z,99465.09
2023-05-10T21:17:58.323Z,99459.22
2023-05-10T21:20:26.926Z,99466.16
2023-05-10T21:22:54.087Z,99471.16
2023-05-10T21:25:22.019Z,99466.13
2023-05-10T21:27:49.200Z,99469.44
2023-05-10T21:30:16.709Z,99468.88
2023-05-10T21:32:44.165Z,99465.50
2023-05-10T21:35:11.448Z,99468.41
2023-05-10T21:37:40.032Z,99464.22
2023-05-10T21:40:08.156Z,99466.94
2023-05-10T21:42:35.334Z,99473.03
2023-05-10T21:45:02.559Z,99473.88
2023-05-10T21:47:29.768Z,99465.84
2023-05-10T21:49:56.987Z,99467.78
2023-05-10T21:52:24.120Z,99462.94
2023-05-10T21:54:52.700Z,99472.59
2023-05-10T21:57:19.812Z,99473.63
2023-05-10T21:59:46.951Z,99471.13
2023-05-10T22:02:14.174Z,99466.72
2023-05-10T22:04:41.338Z,99464.78
2023-05-10T22:07:08.461Z,99462.47
2023-05-10T22:09:35.613Z,99462.84
2023-05-10T22:12:04.562Z,99460.13
2023-05-10T22:14:31.734Z,99463.03
2023-05-10T22:16:59.004Z,99463.31
2023-05-10T22:19:26.230Z,99460.13
2023-05-10T22:21:53.581Z,99464.94
2023-05-10T22:24:20.760Z,99469.34
2023-05-10T22:26:47.937Z,99468.94
2023-05-10T22:29:16.599Z,99466.84
2023-05-10T22:31:44.796Z,99456.31
2023-05-10T22:34:11.917Z,99458.44
2023-05-10T22:36:39.050Z,99463.25
2023-05-10T22:39:06.223Z,99468.31
2023-05-10T22:41:33.866Z,99459.91
2023-05-10T22:44:01.380Z,99467.94
2023-05-10T22:46:31.465Z,99453.59
2023-05-10T22:48:58.694Z,99464.94
2023-05-10T22:51:25.829Z,99459.88
2023-05-10T22:53:52.966Z,99465.75
2023-05-10T22:56:20.491Z,99465.31
2023-05-10T22:58:47.858Z,99473.13
2023-05-10T23:01:15.194Z,99468.44
2023-05-10T23:03:43.780Z,99472.03
2023-05-10T23:06:10.942Z,99467.59
2023-05-10T23:08:38.120Z,99466.28
2023-05-10T23:11:05.394Z,99466.66
2023-05-10T23:13:32.526Z,99472.34
2023-05-10T23:16:05.037Z,99468.97
2023-05-10T23:18:32.274Z,99477.75
2023-05-10T23:21:00.895Z,99473.06
2023-05-10T23:23:28.110Z,99471.56
2023-05-10T23:25:55.307Z,99476.41
2023-05-10T23:28:22.471Z,99477.03
2023-05-10T23:30:54.447Z,99472.44
2023-05-10T23:33:21.974Z,99472.00
2023-05-10T23:35:49.133Z,99475.34
2023-05-10T23:38:17.629Z,99480.25
2023-05-10T23:40:48.315Z,99478.75
2023-05-10T23:43:15.787Z,99484.63
2023-05-10T23:45:43.094Z,99480.97
2023-05-10T23:48:10.288Z,99477.59
2023-05-10T23:50:37.494Z,99475.44
2023-05-10T23:53:04.650Z,99472.69
2023-05-10T23:55:33.219Z,99469.72
2023-05-10T23:58:00.342Z,99471.72
